sensor_id;sensor_type;location;lat;lon;timestamp;P1;durP1;ratioP1;P2;durP2;ratioP2
8948;SDS011;4509;51.522;9.910;2022-07-10T00:02:05;1.77;;;1.77;;
8948;SDS011;4509;51.522;9.910;2022-07-10T00:04:32;1.80;;;1.80;;
8948;SDS011;4509;51.522;9.910;2022-07-10T00:06:59;1.80;;;1.80;;
8948;SDS011;4509;51.522;9.910;2022-07-10T00:09:27;1.83;;;1.83;;
8948;SDS011;4509;51.522;9.910;2022-07-10T00:11:54;1.83;;;1.83;;
8948;SDS011;4509;51.522;9.910;2022-07-10T00:14:22;2.00;;;2.00;;
8948;SDS011;4509;51.522;9.910;2022-07-10T00:16:49;1.83;;;1.83;;
8948;SDS011;4509;51.522;9.910;2022-07-10T00:19:16;2.00;;;2.00;;
8948;SDS011;4509;51.522;9.910;2022-07-10T00:21:43;1.63;;;1.63;;
8948;SDS011;4509;51.522;9.910;2022-07-10T00:24:10;1.47;;;1.47;;
8948;SDS011;4509;51.522;9.910;2022-07-10T00:26:36;1.60;;;1.60;;
8948;SDS011;4509;51.522;9.910;2022-07-10T00:29:03;1.70;;;1.70;;
8948;SDS011;4509;51.522;9.910;2022-07-10T00:31:31;1.67;;;1.67;;
8948;SDS011;4509;51.522;9.910;2022-07-10T00:33:58;1.70;;;1.70;;
8948;SDS011;4509;51.522;9.910;2022-07-10T00:36:25;1.73;;;1.73;;
8948;SDS011;4509;51.522;9.910;2022-07-10T00:38:51;1.70;;;1.70;;
8948;SDS011;4509;51.522;9.910;2022-07-10T00:41:18;1.67;;;1.67;;
8948;SDS011;4509;51.522;9.910;2022-07-10T00:43:51;1.70;;;1.70;;
8948;SDS011;4509;51.522;9.910;2022-07-10T00:46:18;1.67;;;1.67;;
8948;SDS011;4509;51.522;9.910;2022-07-10T00:48:47;1.60;;;1.60;;
8948;SDS011;4509;51.522;9.910;2022-07-10T00:51:15;1.90;;;1.90;;
8948;SDS011;4509;51.522;9.910;2022-07-10T00:53:44;1.70;;;1.70;;
8948;SDS011;4509;51.522;9.910;2022-07-10T00:56:13;1.63;;;1.63;;
8948;SDS011;4509;51.522;9.910;2022-07-10T00:58:42;1.70;;;1.70;;
8948;SDS011;4509;51.522;9.910;2022-07-10T01:01:09;1.60;;;1.60;;
8948;SDS011;4509;51.522;9.910;2022-07-10T01:03:36;1.67;;;1.67;;
8948;SDS011;4509;51.522;9.910;2022-07-10T01:06:05;1.73;;;1.73;;
8948;SDS011;4509;51.522;9.910;2022-07-10T01:08:32;1.60;;;1.60;;
8948;SDS011;4509;51.522;9.910;2022-07-10T01:10:59;1.57;;;1.57;;
8948;SDS011;4509;51.522;9.910;2022-07-10T01:13:29;1.40;;;1.40;;
8948;SDS011;4509;51.522;9.910;2022-07-10T01:15:56;1.40;;;1.40;;
8948;SDS011;4509;51.522;9.910;2022-07-10T01:18:24;1.60;;;1.60;;
8948;SDS011;4509;51.522;9.910;2022-07-10T01:20:52;1.43;;;1.43;;
8948;SDS011;4509;51.522;9.910;2022-07-10T01:23:20;1.60;;;1.60;;
8948;SDS011;4509;51.522;9.910;2022-07-10T01:25:49;1.47;;;1.47;;
8948;SDS011;4509;51.522;9.910;2022-07-10T01:28:17;1.70;;;1.70;;
8948;SDS011;4509;51.522;9.910;2022-07-10T01:30:44;1.60;;;1.60;;
8948;SDS011;4509;51.522;9.910;2022-07-10T01:33:10;1.43;;;1.43;;
8948;SDS011;4509;51.522;9.910;2022-07-10T01:35:37;1.50;;;1.50;;
8948;SDS011;4509;51.522;9.910;2022-07-10T01:38:05;1.40;;;1.40;;
8948;SDS011;4509;51.522;9.910;2022-07-10T01:40:33;1.40;;;1.40;;
8948;SDS011;4509;51.522;9.910;2022-07-10T01:42:59;1.47;;;1.47;;
8948;SDS011;4509;51.522;9.910;2022-07-10T01:45:27;1.50;;;1.50;;
8948;SDS011;4509;51.522;9.910;2022-07-10T01:47:54;1.33;;;1.33;;
8948;SDS011;4509;51.522;9.910;2022-07-10T01:50:22;1.33;;;1.33;;
8948;SDS011;4509;51.522;9.910;2022-07-10T01:52:48;1.40;;;1.40;;
8948;SDS011;4509;51.522;9.910;2022-07-10T01:55:16;1.50;;;1.50;;
8948;SDS011;4509;51.522;9.910;2022-07-10T01:57:43;1.50;;;1.50;;
8948;SDS011;4509;51.522;9.910;2022-07-10T02:00:10;1.47;;;1.47;;
8948;SDS011;4509;51.522;9.910;2022-07-10T02:02:37;1.40;;;1.40;;
8948;SDS011;4509;51.522;9.910;2022-07-10T02:05:04;1.53;;;1.53;;
8948;SDS011;4509;51.522;9.910;2022-07-10T02:07:31;1.40;;;1.40;;
8948;SDS011;4509;51.522;9.910;2022-07-10T02:09:57;1.50;;;1.50;;
8948;SDS011;4509;51.522;9.910;2022-07-10T02:12:26;1.40;;;1.40;;
8948;SDS011;4509;51.522;9.910;2022-07-10T02:14:52;1.40;;;1.40;;
8948;SDS011;4509;51.522;9.910;2022-07-10T02:17:23;1.70;;;1.70;;
8948;SDS011;4509;51.522;9.910;2022-07-10T02:19:50;1.40;;;1.40;;
8948;SDS011;4509;51.522;9.910;2022-07-10T02:22:17;1.60;;;1.60;;
8948;SDS011;4509;51.522;9.910;2022-07-10T02:24:43;1.30;;;1.30;;
8948;SDS011;4509;51.522;9.910;2022-07-10T02:27:10;1.50;;;1.50;;
8948;SDS011;4509;51.522;9.910;2022-07-10T02:29:38;1.60;;;1.60;;
8948;SDS011;4509;51.522;9.910;2022-07-10T02:32:05;1.40;;;1.40;;
8948;SDS011;4509;51.522;9.910;2022-07-10T02:34:32;1.60;;;1.60;;
8948;SDS011;4509;51.522;9.910;2022-07-10T02:37:01;1.60;;;1.60;;
8948;SDS011;4509;51.522;9.910;2022-07-10T02:39:29;1.50;;;1.50;;
8948;SDS011;4509;51.522;9.910;2022-07-10T02:41:56;1.53;;;1.53;;
8948;SDS011;4509;51.522;9.910;2022-07-10T02:44:22;1.37;;;1.37;;
8948;SDS011;4509;51.522;9.910;2022-07-10T02:46:50;1.40;;;1.40;;
8948;SDS011;4509;51.522;9.910;2022-07-10T02:49:17;1.33;;;1.33;;
8948;SDS011;4509;51.522;9.910;2022-07-10T02:51:44;1.30;;;1.30;;
8948;SDS011;4509;51.522;9.910;2022-07-10T02:54:10;1.33;;;1.33;;
8948;SDS011;4509;51.522;9.910;2022-07-10T02:56:37;1.30;;;1.30;;
8948;SDS011;4509;51.522;9.910;2022-07-10T02:59:04;1.50;;;1.50;;
8948;SDS011;4509;51.522;9.910;2022-07-10T03:01:31;1.47;;;1.47;;
8948;SDS011;4509;51.522;9.910;2022-07-10T03:03:59;1.30;;;1.30;;
8948;SDS011;4509;51.522;9.910;2022-07-10T03:06:27;1.50;;;1.50;;
8948;SDS011;4509;51.522;9.910;2022-07-10T03:08:54;1.40;;;1.40;;
8948;SDS011;4509;51.522;9.910;2022-07-10T03:11:21;1.40;;;1.40;;
8948;SDS011;4509;51.522;9.910;2022-07-10T03:13:47;1.50;;;1.50;;
8948;SDS011;4509;51.522;9.910;2022-07-10T03:16:14;1.57;;;1.57;;
8948;SDS011;4509;51.522;9.910;2022-07-10T03:18:41;1.50;;;1.50;;
8948;SDS011;4509;51.522;9.910;2022-07-10T03:21:09;1.60;;;1.60;;
8948;SDS011;4509;51.522;9.910;2022-07-10T03:23:35;1.60;;;1.60;;
8948;SDS011;4509;51.522;9.910;2022-07-10T03:26:04;1.67;;;1.67;;
8948;SDS011;4509;51.522;9.910;2022-07-10T03:28:31;1.77;;;1.77;;
8948;SDS011;4509;51.522;9.910;2022-07-10T03:30:57;1.83;;;1.83;;
8948;SDS011;4509;51.522;9.910;2022-07-10T03:33:24;2.03;;;2.03;;
8948;SDS011;4509;51.522;9.910;2022-07-10T03:35:51;1.50;;;1.50;;
8948;SDS011;4509;51.522;9.910;2022-07-10T03:38:19;1.67;;;1.67;;
8948;SDS011;4509;51.522;9.910;2022-07-10T03:40:45;1.70;;;1.70;;
8948;SDS011;4509;51.522;9.910;2022-07-10T03:43:13;1.70;;;1.70;;
8948;SDS011;4509;51.522;9.910;2022-07-10T03:45:40;1.67;;;1.67;;
8948;SDS011;4509;51.522;9.910;2022-07-10T03:48:06;1.70;;;1.70;;
8948;SDS011;4509;51.522;9.910;2022-07-10T03:50:33;1.50;;;1.50;;
8948;SDS011;4509;51.522;9.910;2022-07-10T03:53:00;1.70;;;1.70;;
8948;SDS011;4509;51.522;9.910;2022-07-10T03:55:28;1.60;;;1.60;;
8948;SDS011;4509;51.522;9.910;2022-07-10T03:57:54;1.60;;;1.60;;
8948;SDS011;4509;51.522;9.910;2022-07-10T04:00:22;1.73;;;1.73;;
8948;SDS011;4509;51.522;9.910;2022-07-10T04:02:56;1.67;;;1.67;;
8948;SDS011;4509;51.522;9.910;2022-07-10T04:05:24;1.60;;;1.60;;
8948;SDS011;4509;51.522;9.910;2022-07-10T04:07:51;1.60;;;1.60;;
8948;SDS011;4509;51.522;9.910;2022-07-10T04:10:18;1.60;;;1.60;;
8948;SDS011;4509;51.522;9.910;2022-07-10T04:12:47;1.80;;;1.80;;
8948;SDS011;4509;51.522;9.910;2022-07-10T04:15:14;1.50;;;1.50;;
8948;SDS011;4509;51.522;9.910;2022-07-10T04:17:40;1.60;;;1.60;;
8948;SDS011;4509;51.522;9.910;2022-07-10T04:20:07;1.40;;;1.40;;
8948;SDS011;4509;51.522;9.910;2022-07-10T04:22:35;1.43;;;1.43;;
8948;SDS011;4509;51.522;9.910;2022-07-10T04:25:02;1.40;;;1.40;;
8948;SDS011;4509;51.522;9.910;2022-07-10T04:27:30;1.50;;;1.50;;
8948;SDS011;4509;51.522;9.910;2022-07-10T04:29:58;1.40;;;1.40;;
8948;SDS011;4509;51.522;9.910;2022-07-10T04:32:25;1.40;;;1.40;;
8948;SDS011;4509;51.522;9.910;2022-07-10T04:34:52;1.50;;;1.50;;
8948;SDS011;4509;51.522;9.910;2022-07-10T04:37:19;1.40;;;1.40;;
8948;SDS011;4509;51.522;9.910;2022-07-10T04:39:46;1.40;;;1.40;;
8948;SDS011;4509;51.522;9.910;2022-07-10T04:42:13;1.40;;;1.40;;
8948;SDS011;4509;51.522;9.910;2022-07-10T04:44:39;1.50;;;1.50;;
8948;SDS011;4509;51.522;9.910;2022-07-10T04:47:08;1.40;;;1.40;;
8948;SDS011;4509;51.522;9.910;2022-07-10T04:49:35;1.43;;;1.43;;
8948;SDS011;4509;51.522;9.910;2022-07-10T04:52:01;1.30;;;1.30;;
8948;SDS011;4509;51.522;9.910;2022-07-10T04:54:28;1.57;;;1.57;;
8948;SDS011;4509;51.522;9.910;2022-07-10T04:56:55;1.50;;;1.50;;
8948;SDS011;4509;51.522;9.910;2022-07-10T04:59:22;1.30;;;1.30;;
8948;SDS011;4509;51.522;9.910;2022-07-10T05:01:48;1.40;;;1.40;;
8948;SDS011;4509;51.522;9.910;2022-07-10T05:04:16;1.50;;;1.50;;
8948;SDS011;4509;51.522;9.910;2022-07-10T05:06:43;1.40;;;1.40;;
8948;SDS011;4509;51.522;9.910;2022-07-10T05:09:10;1.47;;;1.47;;
8948;SDS011;4509;51.522;9.910;2022-07-10T05:11:36;1.50;;;1.50;;
8948;SDS011;4509;51.522;9.910;2022-07-10T05:14:03;1.60;;;1.60;;
8948;SDS011;4509;51.522;9.910;2022-07-10T05:16:30;1.40;;;1.40;;
8948;SDS011;4509;51.522;9.910;2022-07-10T05:18:56;1.53;;;1.53;;
8948;SDS011;4509;51.522;9.910;2022-07-10T05:21:24;1.50;;;1.50;;
8948;SDS011;4509;51.522;9.910;2022-07-10T05:23:51;1.50;;;1.50;;
8948;SDS011;4509;51.522;9.910;2022-07-10T05:26:18;1.40;;;1.40;;
8948;SDS011;4509;51.522;9.910;2022-07-10T05:28:45;1.43;;;1.43;;
8948;SDS011;4509;51.522;9.910;2022-07-10T05:31:11;1.43;;;1.43;;
8948;SDS011;4509;51.522;9.910;2022-07-10T05:33:38;1.50;;;1.50;;
8948;SDS011;4509;51.522;9.910;2022-07-10T05:36:05;1.50;;;1.50;;
8948;SDS011;4509;51.522;9.910;2022-07-10T05:38:34;1.50;;;1.50;;
8948;SDS011;4509;51.522;9.910;2022-07-10T05:41:01;1.30;;;1.30;;
8948;SDS011;4509;51.522;9.910;2022-07-10T05:43:28;1.50;;;1.50;;
8948;SDS011;4509;51.522;9.910;2022-07-10T05:45:55;1.50;;;1.50;;
8948;SDS011;4509;51.522;9.910;2022-07-10T05:48:22;1.50;;;1.50;;
8948;SDS011;4509;51.522;9.910;2022-07-10T05:50:49;1.60;;;1.60;;
8948;SDS011;4509;51.522;9.910;2022-07-10T05:53:15;1.50;;;1.50;;
8948;SDS011;4509;51.522;9.910;2022-07-10T05:55:46;1.40;;;1.40;;
8948;SDS011;4509;51.522;9.910;2022-07-10T05:58:13;1.37;;;1.37;;
8948;SDS011;4509;51.522;9.910;2022-07-10T06:00:39;1.30;;;1.30;;
8948;SDS011;4509;51.522;9.910;2022-07-10T06:03:08;1.47;;;1.47;;
8948;SDS011;4509;51.522;9.910;2022-07-10T06:05:34;1.40;;;1.40;;
8948;SDS011;4509;51.522;9.910;2022-07-10T06:08:01;1.50;;;1.50;;
8948;SDS011;4509;51.522;9.910;2022-07-10T06:10:28;1.30;;;1.30;;
8948;SDS011;4509;51.522;9.910;2022-07-10T06:12:56;1.33;;;1.33;;
8948;SDS011;4509;51.522;9.910;2022-07-10T06:15:23;1.40;;;1.40;;
8948;SDS011;4509;51.522;9.910;2022-07-10T06:17:49;1.60;;;1.60;;
8948;SDS011;4509;51.522;9.910;2022-07-10T06:20:16;1.43;;;1.43;;
8948;SDS011;4509;51.522;9.910;2022-07-10T06:22:43;1.60;;;1.60;;
8948;SDS011;4509;51.522;9.910;2022-07-10T06:25:10;1.40;;;1.40;;
8948;SDS011;4509;51.522;9.910;2022-07-10T06:27:37;1.40;;;1.40;;
8948;SDS011;4509;51.522;9.910;2022-07-10T06:30:06;1.40;;;1.40;;
8948;SDS011;4509;51.522;9.910;2022-07-10T06:32:33;1.33;;;1.33;;
8948;SDS011;4509;51.522;9.910;2022-07-10T06:35:00;1.40;;;1.40;;
8948;SDS011;4509;51.522;9.910;2022-07-10T06:37:32;1.47;;;1.47;;
8948;SDS011;4509;51.522;9.910;2022-07-10T06:39:58;1.53;;;1.53;;
8948;SDS011;4509;51.522;9.910;2022-07-10T06:42:26;1.40;;;1.40;;
8948;SDS011;4509;51.522;9.910;2022-07-10T06:44:52;1.43;;;1.43;;
8948;SDS011;4509;51.522;9.910;2022-07-10T06:47:23;1.43;;;1.43;;
8948;SDS011;4509;51.522;9.910;2022-07-10T06:50:08;1.40;;;1.40;;
8948;SDS011;4509;51.522;9.910;2022-07-10T06:52:35;1.20;;;1.20;;
8948;SDS011;4509;51.522;9.910;2022-07-10T06:55:03;1.47;;;1.47;;
8948;SDS011;4509;51.522;9.910;2022-07-10T06:57:30;1.53;;;1.53;;
8948;SDS011;4509;51.522;9.910;2022-07-10T06:59:57;1.47;;;1.47;;
8948;SDS011;4509;51.522;9.910;2022-07-10T07:02:25;1.57;;;1.57;;
8948;SDS011;4509;51.522;9.910;2022-07-10T07:04:52;1.77;;;1.77;;
8948;SDS011;4509;51.522;9.910;2022-07-10T07:07:19;1.43;;;1.43;;
8948;SDS011;4509;51.522;9.910;2022-07-10T07:09:45;1.60;;;1.60;;
8948;SDS011;4509;51.522;9.910;2022-07-10T07:12:14;1.83;;;1.83;;
8948;SDS011;4509;51.522;9.910;2022-07-10T07:14:41;2.20;;;2.13;;
8948;SDS011;4509;51.522;9.910;2022-07-10T07:17:08;2.10;;;2.10;;
8948;SDS011;4509;51.522;9.910;2022-07-10T07:19:38;1.97;;;1.97;;
8948;SDS011;4509;51.522;9.910;2022-07-10T07:22:22;1.70;;;1.70;;
8948;SDS011;4509;51.522;9.910;2022-07-10T07:25:08;1.60;;;1.60;;
8948;SDS011;4509;51.522;9.910;2022-07-10T07:27:36;1.80;;;1.80;;
8948;SDS011;4509;51.522;9.910;2022-07-10T07:30:04;1.70;;;1.70;;
8948;SDS011;4509;51.522;9.910;2022-07-10T07:32:32;1.70;;;1.70;;
8948;SDS011;4509;51.522;9.910;2022-07-10T07:35:00;1.70;;;1.70;;
8948;SDS011;4509;51.522;9.910;2022-07-10T07:37:34;1.83;;;1.83;;
8948;SDS011;4509;51.522;9.910;2022-07-10T07:40:02;1.80;;;1.80;;
8948;SDS011;4509;51.522;9.910;2022-07-10T07:42:29;1.93;;;1.93;;
8948;SDS011;4509;51.522;9.910;2022-07-10T07:44:56;1.97;;;1.97;;
8948;SDS011;4509;51.522;9.910;2022-07-10T07:47:23;2.17;;;2.13;;
8948;SDS011;4509;51.522;9.910;2022-07-10T07:49:49;2.67;;;2.57;;
8948;SDS011;4509;51.522;9.910;2022-07-10T07:52:17;2.73;;;2.63;;
8948;SDS011;4509;51.522;9.910;2022-07-10T07:54:44;3.23;;;3.13;;
8948;SDS011;4509;51.522;9.910;2022-07-10T07:57:11;3.50;;;3.40;;
8948;SDS011;4509;51.522;9.910;2022-07-10T07:59:38;4.00;;;3.90;;
8948;SDS011;4509;51.522;9.910;2022-07-10T08:02:05;3.77;;;3.67;;
8948;SDS011;4509;51.522;9.910;2022-07-10T08:04:31;3.97;;;3.87;;
8948;SDS011;4509;51.522;9.910;2022-07-10T08:06:58;4.27;;;4.13;;
8948;SDS011;4509;51.522;9.910;2022-07-10T08:09:27;4.70;;;4.50;;
8948;SDS011;4509;51.522;9.910;2022-07-10T08:11:54;6.57;;;6.30;;
8948;SDS011;4509;51.522;9.910;2022-07-10T08:14:21;6.37;;;6.17;;
8948;SDS011;4509;51.522;9.910;2022-07-10T08:16:47;6.17;;;5.97;;
8948;SDS011;4509;51.522;9.910;2022-07-10T08:19:16;5.78;;;5.57;;
8948;SDS011;4509;51.522;9.910;2022-07-10T08:21:42;5.70;;;5.50;;
8948;SDS011;4509;51.522;9.910;2022-07-10T08:24:09;4.88;;;4.68;;
8948;SDS011;4509;51.522;9.910;2022-07-10T08:26:40;4.65;;;4.45;;
8948;SDS011;4509;51.522;9.910;2022-07-10T08:29:07;4.72;;;4.53;;
8948;SDS011;4509;51.522;9.910;2022-07-10T08:31:34;5.03;;;4.83;;
8948;SDS011;4509;51.522;9.910;2022-07-10T08:34:01;4.72;;;4.53;;
8948;SDS011;4509;51.522;9.910;2022-07-10T08:36:28;4.60;;;4.40;;
8948;SDS011;4509;51.522;9.910;2022-07-10T08:38:54;4.50;;;4.30;;
8948;SDS011;4509;51.522;9.910;2022-07-10T08:41:22;4.80;;;4.60;;
8948;SDS011;4509;51.522;9.910;2022-07-10T08:43:52;4.90;;;4.70;;
8948;SDS011;4509;51.522;9.910;2022-07-10T08:46:19;5.13;;;4.93;;
8948;SDS011;4509;51.522;9.910;2022-07-10T08:48:46;5.60;;;5.40;;
8948;SDS011;4509;51.522;9.910;2022-07-10T08:51:16;5.47;;;5.27;;
8948;SDS011;4509;51.522;9.910;2022-07-10T08:53:57;4.77;;;4.57;;
8948;SDS011;4509;51.522;9.910;2022-07-10T08:56:26;4.57;;;4.37;;
8948;SDS011;4509;51.522;9.910;2022-07-10T08:58:54;4.70;;;4.50;;
8948;SDS011;4509;51.522;9.910;2022-07-10T09:01:21;5.37;;;5.17;;
8948;SDS011;4509;51.522;9.910;2022-07-10T09:03:49;4.87;;;4.67;;
8948;SDS011;4509;51.522;9.910;2022-07-10T09:06:16;4.60;;;4.40;;
8948;SDS011;4509;51.522;9.910;2022-07-10T09:08:57;5.47;;;5.28;;
8948;SDS011;4509;51.522;9.910;2022-07-10T09:11:25;4.13;;;4.03;;
8948;SDS011;4509;51.522;9.910;2022-07-10T09:13:55;4.88;;;4.68;;
8948;SDS011;4509;51.522;9.910;2022-07-10T09:16:24;4.13;;;4.03;;
8948;SDS011;4509;51.522;9.910;2022-07-10T09:18:51;4.47;;;4.28;;
8948;SDS011;4509;51.522;9.910;2022-07-10T09:21:18;4.53;;;4.32;;
8948;SDS011;4509;51.522;9.910;2022-07-10T09:23:46;4.20;;;4.07;;
8948;SDS011;4509;51.522;9.910;2022-07-10T09:26:13;4.75;;;4.55;;
8948;SDS011;4509;51.522;9.910;2022-07-10T09:28:40;4.70;;;4.50;;
8948;SDS011;4509;51.522;9.910;2022-07-10T09:31:08;4.47;;;4.28;;
8948;SDS011;4509;51.522;9.910;2022-07-10T09:33:35;4.60;;;4.40;;
8948;SDS011;4509;51.522;9.910;2022-07-10T09:36:06;4.65;;;4.45;;
8948;SDS011;4509;51.522;9.910;2022-07-10T09:38:49;4.63;;;4.43;;
8948;SDS011;4509;51.522;9.910;2022-07-10T09:41:24;4.32;;;4.18;;
8948;SDS011;4509;51.522;9.910;2022-07-10T09:43:52;4.63;;;4.43;;
8948;SDS011;4509;51.522;9.910;2022-07-10T09:46:22;4.18;;;4.07;;
8948;SDS011;4509;51.522;9.910;2022-07-10T09:49:03;4.55;;;4.35;;
8948;SDS011;4509;51.522;9.910;2022-07-10T09:51:32;4.10;;;4.00;;
8948;SDS011;4509;51.522;9.910;2022-07-10T09:54:00;4.20;;;4.07;;
8948;SDS011;4509;51.522;9.910;2022-07-10T09:56:30;4.90;;;4.70;;
8948;SDS011;4509;51.522;9.910;2022-07-10T09:59:05;4.35;;;4.18;;
8948;SDS011;4509;51.522;9.910;2022-07-10T10:01:36;4.57;;;4.38;;
8948;SDS011;4509;51.522;9.910;2022-07-10T10:04:04;4.82;;;4.63;;
8948;SDS011;4509;51.522;9.910;2022-07-10T10:06:31;4.68;;;4.47;;
8948;SDS011;4509;51.522;9.910;2022-07-10T10:09:03;4.82;;;4.63;;
8948;SDS011;4509;51.522;9.910;2022-07-10T10:11:32;4.05;;;3.95;;
8948;SDS011;4509;51.522;9.910;2022-07-10T10:14:02;4.80;;;4.60;;
8948;SDS011;4509;51.522;9.910;2022-07-10T10:16:29;4.68;;;4.47;;
8948;SDS011;4509;51.522;9.910;2022-07-10T10:18:57;4.10;;;4.00;;
8948;SDS011;4509;51.522;9.910;2022-07-10T10:21:42;3.22;;;3.13;;
8948;SDS011;4509;51.522;9.910;2022-07-10T10:24:10;2.70;;;2.60;;
8948;SDS011;4509;51.522;9.910;2022-07-10T10:26:37;2.47;;;2.38;;
8948;SDS011;4509;51.522;9.910;2022-07-10T10:29:05;2.55;;;2.45;;
8948;SDS011;4509;51.522;9.910;2022-07-10T10:31:32;2.67;;;2.58;;
8948;SDS011;4509;51.522;9.910;2022-07-10T10:34:01;2.45;;;2.35;;
8948;SDS011;4509;51.522;9.910;2022-07-10T10:36:44;3.47;;;3.38;;
8948;SDS011;4509;51.522;9.910;2022-07-10T10:39:12;4.60;;;4.40;;
8948;SDS011;4509;51.522;9.910;2022-07-10T10:41:42;4.47;;;4.27;;
8948;SDS011;4509;51.522;9.910;2022-07-10T10:44:20;4.47;;;4.27;;
8948;SDS011;4509;51.522;9.910;2022-07-10T10:46:58;4.43;;;4.23;;
8948;SDS011;4509;51.522;9.910;2022-07-10T10:49:50;4.60;;;4.40;;
8948;SDS011;4509;51.522;9.910;2022-07-10T10:52:19;4.00;;;3.90;;
8948;SDS011;4509;51.522;9.910;2022-07-10T10:55:00;3.88;;;3.78;;
8948;SDS011;4509;51.522;9.910;2022-07-10T10:57:39;2.45;;;2.35;;
8948;SDS011;4509;51.522;9.910;2022-07-10T11:00:13;2.13;;;2.10;;
8948;SDS011;4509;51.522;9.910;2022-07-10T11:02:41;2.40;;;2.30;;
8948;SDS011;4509;51.522;9.910;2022-07-10T11:08:08;2.28;;;2.17;;
8948;SDS011;4509;51.522;9.910;2022-07-10T11:10:35;2.40;;;2.30;;
8948;SDS011;4509;51.522;9.910;2022-07-10T11:13:04;2.58;;;2.47;;
8948;SDS011;4509;51.522;9.910;2022-07-10T11:15:33;2.30;;;2.20;;
8948;SDS011;4509;51.522;9.910;2022-07-10T11:18:04;2.17;;;2.10;;
8948;SDS011;4509;51.522;9.910;2022-07-10T11:20:33;2.38;;;2.28;;
8948;SDS011;4509;51.522;9.910;2022-07-10T11:23:12;2.28;;;2.17;;
8948;SDS011;4509;51.522;9.910;2022-07-10T11:26:02;2.42;;;2.33;;
8948;SDS011;4509;51.522;9.910;2022-07-10T11:31:19;2.42;;;2.33;;
8948;SDS011;4509;51.522;9.910;2022-07-10T11:33:47;2.20;;;2.13;;
8948;SDS011;4509;51.522;9.910;2022-07-10T11:36:17;2.35;;;2.25;;
8948;SDS011;4509;51.522;9.910;2022-07-10T11:38:48;2.20;;;2.10;;
8948;SDS011;4509;51.522;9.910;2022-07-10T11:41:23;1.88;;;1.88;;
8948;SDS011;4509;51.522;9.910;2022-07-10T11:43:50;2.25;;;2.15;;
8948;SDS011;4509;51.522;9.910;2022-07-10T11:46:17;2.00;;;2.00;;
8948;SDS011;4509;51.522;9.910;2022-07-10T11:48:45;2.20;;;2.13;;
8948;SDS011;4509;51.522;9.910;2022-07-10T11:51:16;2.30;;;2.20;;
8948;SDS011;4509;51.522;9.910;2022-07-10T11:53:53;2.20;;;2.13;;
8948;SDS011;4509;51.522;9.910;2022-07-10T11:56:21;2.25;;;2.15;;
8948;SDS011;4509;51.522;9.910;2022-07-10T11:58:55;2.03;;;2.03;;
8948;SDS011;4509;51.522;9.910;2022-07-10T12:01:22;2.38;;;2.28;;
8948;SDS011;4509;51.522;9.910;2022-07-10T12:03:56;2.90;;;2.80;;
8948;SDS011;4509;51.522;9.910;2022-07-10T12:06:24;3.53;;;3.42;;
8948;SDS011;4509;51.522;9.910;2022-07-10T12:08:51;3.45;;;3.35;;
8948;SDS011;4509;51.522;9.910;2022-07-10T12:11:20;3.45;;;3.35;;
8948;SDS011;4509;51.522;9.910;2022-07-10T12:13:49;3.13;;;3.03;;
8948;SDS011;4509;51.522;9.910;2022-07-10T12:16:18;3.20;;;3.10;;
8948;SDS011;4509;51.522;9.910;2022-07-10T12:18:45;3.17;;;3.08;;
8948;SDS011;4509;51.522;9.910;2022-07-10T12:21:13;3.15;;;3.05;;
8948;SDS011;4509;51.522;9.910;2022-07-10T12:23:41;3.25;;;3.15;;
8948;SDS011;4509;51.522;9.910;2022-07-10T12:26:11;3.05;;;2.95;;
8948;SDS011;4509;51.522;9.910;2022-07-10T12:28:51;3.25;;;3.15;;
8948;SDS011;4509;51.522;9.910;2022-07-10T12:31:20;3.15;;;3.05;;
8948;SDS011;4509;51.522;9.910;2022-07-10T12:33:51;2.95;;;2.85;;
8948;SDS011;4509;51.522;9.910;2022-07-10T12:36:20;3.17;;;3.08;;
8948;SDS011;4509;51.522;9.910;2022-07-10T12:38:52;2.88;;;2.78;;
8948;SDS011;4509;51.522;9.910;2022-07-10T12:41:22;3.20;;;3.10;;
8948;SDS011;4509;51.522;9.910;2022-07-10T12:43:50;2.95;;;2.85;;
8948;SDS011;4509;51.522;9.910;2022-07-10T12:46:18;2.78;;;2.67;;
8948;SDS011;4509;51.522;9.910;2022-07-10T12:49:00;2.45;;;2.35;;
8948;SDS011;4509;51.522;9.910;2022-07-10T12:51:28;2.30;;;2.20;;
8948;SDS011;4509;51.522;9.910;2022-07-10T12:53:55;2.22;;;2.13;;
8948;SDS011;4509;51.522;9.910;2022-07-10T12:56:27;1.98;;;1.98;;
8948;SDS011;4509;51.522;9.910;2022-07-10T12:58:55;2.38;;;2.28;;
8948;SDS011;4509;51.522;9.910;2022-07-10T13:01:21;2.38;;;2.28;;
8948;SDS011;4509;51.522;9.910;2022-07-10T13:03:48;2.28;;;2.17;;
8948;SDS011;4509;51.522;9.910;2022-07-10T13:06:25;2.10;;;2.05;;
8948;SDS011;4509;51.522;9.910;2022-07-10T13:08:52;2.30;;;2.20;;
8948;SDS011;4509;51.522;9.910;2022-07-10T13:11:19;2.28;;;2.17;;
8948;SDS011;4509;51.522;9.910;2022-07-10T13:13:47;2.50;;;2.40;;
8948;SDS011;4509;51.522;9.910;2022-07-10T13:16:14;2.70;;;2.60;;
8948;SDS011;4509;51.522;9.910;2022-07-10T13:18:41;2.80;;;2.70;;
8948;SDS011;4509;51.522;9.910;2022-07-10T13:21:08;2.70;;;2.60;;
8948;SDS011;4509;51.522;9.910;2022-07-10T13:23:36;2.63;;;2.53;;
8948;SDS011;4509;51.522;9.910;2022-07-10T13:26:03;2.78;;;2.67;;
8948;SDS011;4509;51.522;9.910;2022-07-10T13:28:32;2.90;;;2.80;;
8948;SDS011;4509;51.522;9.910;2022-07-10T13:31:00;2.90;;;2.80;;
8948;SDS011;4509;51.522;9.910;2022-07-10T13:33:27;3.05;;;2.95;;
8948;SDS011;4509;51.522;9.910;2022-07-10T13:35:54;3.08;;;2.97;;
8948;SDS011;4509;51.522;9.910;2022-07-10T13:38:20;3.55;;;3.45;;
8948;SDS011;4509;51.522;9.910;2022-07-10T13:40:48;3.60;;;3.50;;
8948;SDS011;4509;51.522;9.910;2022-07-10T13:43:15;3.97;;;3.88;;
8948;SDS011;4509;51.522;9.910;2022-07-10T13:45:42;4.90;;;4.70;;
8948;SDS011;4509;51.522;9.910;2022-07-10T13:48:10;4.97;;;4.78;;
8948;SDS011;4509;51.522;9.910;2022-07-10T13:50:38;4.93;;;4.72;;
8948;SDS011;4509;51.522;9.910;2022-07-10T13:53:05;5.38;;;5.18;;
8948;SDS011;4509;51.522;9.910;2022-07-10T13:55:33;6.07;;;5.88;;
8948;SDS011;4509;51.522;9.910;2022-07-10T13:58:00;4.75;;;4.55;;
8948;SDS011;4509;51.522;9.910;2022-07-10T14:00:26;5.60;;;5.40;;
8948;SDS011;4509;51.522;9.910;2022-07-10T14:02:53;5.57;;;5.37;;
8948;SDS011;4509;51.522;9.910;2022-07-10T14:05:23;5.40;;;5.20;;
8948;SDS011;4509;51.522;9.910;2022-07-10T14:07:49;5.53;;;5.33;;
8948;SDS011;4509;51.522;9.910;2022-07-10T14:10:16;5.07;;;4.87;;
8948;SDS011;4509;51.522;9.910;2022-07-10T14:12:43;5.40;;;5.20;;
8948;SDS011;4509;51.522;9.910;2022-07-10T14:15:09;4.97;;;4.77;;
8948;SDS011;4509;51.522;9.910;2022-07-10T14:17:36;5.33;;;5.13;;
8948;SDS011;4509;51.522;9.910;2022-07-10T14:20:03;5.23;;;5.03;;
8948;SDS011;4509;51.522;9.910;2022-07-10T14:22:32;5.13;;;4.93;;
8948;SDS011;4509;51.522;9.910;2022-07-10T14:24:58;5.22;;;5.03;;
8948;SDS011;4509;51.522;9.910;2022-07-10T14:27:25;5.83;;;5.63;;
8948;SDS011;4509;51.522;9.910;2022-07-10T14:29:54;5.30;;;5.10;;
8948;SDS011;4509;51.522;9.910;2022-07-10T14:32:21;5.40;;;5.20;;
8948;SDS011;4509;51.522;9.910;2022-07-10T14:34:47;6.07;;;5.87;;
8948;SDS011;4509;51.522;9.910;2022-07-10T14:37:14;5.10;;;4.90;;
8948;SDS011;4509;51.522;9.910;2022-07-10T14:39:42;5.10;;;4.90;;
8948;SDS011;4509;51.522;9.910;2022-07-10T14:42:11;5.30;;;5.10;;
8948;SDS011;4509;51.522;9.910;2022-07-10T14:44:37;5.67;;;5.47;;
8948;SDS011;4509;51.522;9.910;2022-07-10T14:47:04;5.10;;;4.90;;
8948;SDS011;4509;51.522;9.910;2022-07-10T14:49:31;5.30;;;5.10;;
8948;SDS011;4509;51.522;9.910;2022-07-10T14:51:57;6.33;;;6.13;;
8948;SDS011;4509;51.522;9.910;2022-07-10T14:54:24;6.07;;;5.87;;
8948;SDS011;4509;51.522;9.910;2022-07-10T14:56:52;5.30;;;5.10;;
8948;SDS011;4509;51.522;9.910;2022-07-10T14:59:19;5.80;;;5.60;;
8948;SDS011;4509;51.522;9.910;2022-07-10T15:01:46;5.57;;;5.37;;
8948;SDS011;4509;51.522;9.910;2022-07-10T15:04:12;5.90;;;5.70;;
8948;SDS011;4509;51.522;9.910;2022-07-10T15:06:39;5.77;;;5.57;;
8948;SDS011;4509;51.522;9.910;2022-07-10T15:09:06;5.97;;;5.77;;
8948;SDS011;4509;51.522;9.910;2022-07-10T15:11:32;5.60;;;5.40;;
8948;SDS011;4509;51.522;9.910;2022-07-10T15:14:02;5.97;;;5.77;;
8948;SDS011;4509;51.522;9.910;2022-07-10T15:16:29;5.60;;;5.40;;
8948;SDS011;4509;51.522;9.910;2022-07-10T15:18:56;6.03;;;5.83;;
8948;SDS011;4509;51.522;9.910;2022-07-10T15:21:23;6.10;;;5.90;;
8948;SDS011;4509;51.522;9.910;2022-07-10T15:23:50;6.30;;;6.10;;
8948;SDS011;4509;51.522;9.910;2022-07-10T15:26:17;7.17;;;6.87;;
8948;SDS011;4509;51.522;9.910;2022-07-10T15:28:43;6.70;;;6.40;;